Terminal Aerodrome Forecast
Issued by NWS Tampa Bay Area, FL

Home | Current Version | Previous Version | Text Only | Print | Product List | Glossary On
Versions: 1 2 3 4 5 6 7 8 9 10 11 12 13
000
FTUS42 KTBW 051457 AAA
TAFSRQ
TAF AMD
KSRQ 051457Z 0515/0612 09013G20KT P6SM SCT025 BKN050
      TEMPO 0515/0517 BKN025
     FM060100 08008KT P6SM SCT050 BKN250
     FM060600 05006KT P6SM SCT050 BKN250=

USA.gov is the U.S. government's official web portal to all federal, state and local government web resources and services.